createdAt,value
2019-03-20T00:01:13.856Z,102810.71
2019-03-20T00:03:33.658Z,102814.36
2019-03-20T00:05:53.384Z,102807.31
2019-03-20T00:08:13.275Z,102809.31
2019-03-20T00:10:33.287Z,102805.33
2019-03-20T00:12:53.514Z,102803.80
2019-03-20T00:15:14.481Z,102799.98
2019-03-20T00:17:34.571Z,102805.51
2019-03-20T00:19:54.402Z,102804.11
2019-03-20T00:22:14.254Z,102807.61
2019-03-20T00:24:34.393Z,102807.28
2019-03-20T00:26:54.161Z,102814.61
2019-03-20T00:29:14.108Z,102812.35
2019-03-20T00:31:33.972Z,102811.56
2019-03-20T00:33:53.861Z,102805.52
2019-03-20T00:36:13.581Z,102810.51
2019-03-20T00:38:33.457Z,102809.19
2019-03-20T00:40:53.169Z,102812.66
2019-03-20T00:43:12.994Z,102813.82
2019-03-20T00:45:32.835Z,102815.80
2019-03-20T00:47:52.512Z,102814.58
2019-03-20T00:50:19.446Z,102815.89
2019-03-20T00:52:39.466Z,102817.11
2019-03-20T00:54:59.545Z,102816.15
2019-03-20T00:57:19.556Z,102818.52
2019-03-20T00:59:39.343Z,102825.11
2019-03-20T01:01:59.031Z,102822.17
2019-03-20T01:04:18.836Z,102817.41
2019-03-20T01:06:38.591Z,102820.17
2019-03-20T01:08:58.405Z,102817.20
2019-03-20T01:11:18.254Z,102815.66
2019-03-20T01:13:38.025Z,102816.92
2019-03-20T01:15:58.035Z,102820.48
2019-03-20T01:18:17.745Z,102811.09
2019-03-20T01:20:37.686Z,102812.11
2019-03-20T01:22:57.890Z,102813.56
2019-03-20T01:25:18.300Z,102811.74
2019-03-20T01:27:38.059Z,102817.86
2019-03-20T01:29:58.082Z,102820.56
2019-03-20T01:32:17.958Z,102820.77
2019-03-20T01:34:37.942Z,102824.92
2019-03-20T01:36:57.850Z,102822.84
2019-03-20T01:39:17.619Z,102817.34
2019-03-20T01:41:38.449Z,102820.06
2019-03-20T01:43:58.664Z,102826.50
2019-03-20T01:46:18.456Z,102823.34
2019-03-20T01:48:38.225Z,102818.54
2019-03-20T01:51:16.936Z,102823.03
2019-03-20T01:53:37.600Z,102819.19
2019-03-20T01:55:57.783Z,102819.11
2019-03-20T01:58:17.772Z,102817.59
2019-03-20T02:00:37.827Z,102819.52
2019-03-20T02:02:57.641Z,102821.11
2019-03-20T02:05:17.576Z,102826.29
2019-03-20T02:07:37.507Z,102823.82
2019-03-20T02:09:57.263Z,102822.40
2019-03-20T02:12:17.129Z,102826.66
2019-03-20T02:14:37.233Z,102825.30
2019-03-20T02:16:57.025Z,102824.38
2019-03-20T02:19:16.849Z,102821.07
2019-03-20T02:21:36.504Z,102827.91
2019-03-20T02:23:56.338Z,102833.28
2019-03-20T02:26:16.251Z,102837.45
2019-03-20T02:28:36.016Z,102836.44
2019-03-20T02:30:56.043Z,102846.71
2019-03-20T02:33:15.654Z,102845.89
2019-03-20T02:35:50.317Z,102851.93
2019-03-20T02:37:57.397Z,102846.83
2019-03-20T02:40:17.159Z,102847.73
2019-03-20T02:42:37.032Z,102851.31
2019-03-20T02:44:56.807Z,102847.59
2019-03-20T02:47:16.870Z,102843.36
2019-03-20T02:49:36.929Z,102853.33
2019-03-20T02:51:56.862Z,102850.47
2019-03-20T02:54:16.866Z,102845.61
2019-03-20T02:56:36.759Z,102844.16
2019-03-20T02:58:57.111Z,102843.22
2019-03-20T03:01:16.953Z,102841.38
2019-03-20T03:03:37.281Z,102845.89
2019-03-20T03:06:06.820Z,102846.97
2019-03-20T03:08:18.803Z,102845.03
2019-03-20T03:10:38.555Z,102849.33
2019-03-20T03:12:58.326Z,102850.34
2019-03-20T03:15:17.975Z,102853.37
2019-03-20T03:17:37.810Z,102849.23
2019-03-20T03:19:57.938Z,102851.81
2019-03-20T03:22:17.609Z,102854.53
2019-03-20T03:24:37.320Z,102861.45
2019-03-20T03:26:57.106Z,102853.37
2019-03-20T03:29:16.863Z,102851.74
2019-03-20T03:31:36.624Z,102852.72
2019-03-20T03:33:56.419Z,102852.39
2019-03-20T03:36:21.477Z,102855.73
2019-03-20T03:38:38.356Z,102856.59
2019-03-20T03:40:58.158Z,102854.57
2019-03-20T03:43:17.968Z,102854.57
2019-03-20T03:45:37.713Z,102861.56
2019-03-20T03:47:57.624Z,102860.97
2019-03-20T03:50:17.570Z,102862.02
2019-03-20T03:52:37.549Z,102860.04
2019-03-20T03:54:57.513Z,102866.81
2019-03-20T03:57:17.431Z,102863.22
2019-03-20T03:59:37.097Z,102859.14
2019-03-20T04:01:56.869Z,102863.16
2019-03-20T04:04:16.573Z,102868.56
2019-03-20T04:06:36.613Z,102877.66
2019-03-20T04:08:56.293Z,102878.57
2019-03-20T04:11:16.087Z,102873.72
2019-03-20T04:13:35.863Z,102882.33
2019-03-20T04:15:56.170Z,102878.03
2019-03-20T04:18:16.041Z,102882.88
2019-03-20T04:20:35.731Z,102882.52
2019-03-20T04:22:56.509Z,102886.67
2019-03-20T04:25:16.400Z,102886.99
2019-03-20T04:27:36.137Z,102891.41
2019-03-20T04:29:56.033Z,102891.66
2019-03-20T04:32:15.874Z,102900.36
2019-03-20T04:34:35.886Z,102895.91
2019-03-20T04:36:55.710Z,102889.11
2019-03-20T04:39:15.542Z,102894.73
2019-03-20T04:41:35.594Z,102891.42
2019-03-20T04:44:15.499Z,102889.97
2019-03-20T04:46:35.371Z,102897.33
2019-03-20T04:48:55.095Z,102898.02
2019-03-20T04:51:15.083Z,102895.31
2019-03-20T04:53:35.108Z,102899.83
2019-03-20T04:55:55.040Z,102897.02
2019-03-20T04:58:14.983Z,102906.17
2019-03-20T05:00:34.860Z,102901.48
2019-03-20T05:02:54.632Z,102911.36
2019-03-20T05:05:14.319Z,102913.41
2019-03-20T05:07:34.056Z,102906.61
2019-03-20T05:09:53.754Z,102913.58
2019-03-20T05:12:13.491Z,102918.66
2019-03-20T05:14:33.248Z,102921.17
2019-03-20T05:16:52.943Z,102922.02
2019-03-20T05:19:12.640Z,102925.75
2019-03-20T05:21:32.416Z,102923.39
2019-03-20T05:23:52.224Z,102922.19
2019-03-20T05:26:11.936Z,102926.87
2019-03-20T05:28:31.727Z,102926.55
2019-03-20T05:30:51.973Z,102928.23
2019-03-20T05:33:11.795Z,102927.17
2019-03-20T05:35:31.684Z,102926.94
2019-03-20T05:37:51.653Z,102928.43
2019-03-20T05:40:15.820Z,102924.36
2019-03-20T05:42:35.726Z,102932.67
2019-03-20T05:44:56.169Z,102930.45
2019-03-20T05:47:16.355Z,102928.04
2019-03-20T05:49:36.374Z,102934.97
2019-03-20T05:51:56.172Z,102945.36
2019-03-20T05:54:19.358Z,102947.46
2019-03-20T05:56:39.211Z,102949.50
2019-03-20T05:58:59.122Z,102952.41
2019-03-20T06:01:18.951Z,102952.25
2019-03-20T06:03:39.093Z,102953.16
2019-03-20T06:05:59.008Z,102951.08
2019-03-20T06:08:18.977Z,102945.82
2019-03-20T06:10:38.989Z,102945.77
2019-03-20T06:12:58.965Z,102952.00
2019-03-20T06:15:18.960Z,102952.42
2019-03-20T06:17:39.022Z,102952.09
2019-03-20T06:19:58.797Z,102956.78
2019-03-20T06:22:18.521Z,102957.82
2019-03-20T06:24:38.301Z,102961.39
2019-03-20T06:26:58.141Z,102968.11
2019-03-20T06:29:20.095Z,102972.30
2019-03-20T06:31:39.710Z,102969.52
2019-03-20T06:33:59.386Z,102971.09
2019-03-20T06:36:19.163Z,102963.88
2019-03-20T06:38:38.929Z,102970.95
2019-03-20T06:40:58.688Z,102970.70
2019-03-20T06:43:18.664Z,102968.28
2019-03-20T06:45:38.776Z,102958.80
2019-03-20T06:47:58.546Z,102963.92
2019-03-20T06:50:20.766Z,102975.07
2019-03-20T06:52:41.412Z,102971.25
2019-03-20T06:55:01.656Z,102975.83
2019-03-20T06:57:21.840Z,102991.02
2019-03-20T07:00:07.427Z,102985.91
2019-03-20T07:02:27.673Z,102990.20
2019-03-20T07:05:45.729Z,102990.80
2019-03-20T07:08:06.624Z,102986.60
2019-03-20T07:11:02.617Z,102986.91
2019-03-20T07:13:22.879Z,102994.54
2019-03-20T07:15:42.747Z,102991.25
2019-03-20T07:18:02.620Z,102998.03
2019-03-20T07:20:22.364Z,102993.41
2019-03-20T07:22:42.048Z,102993.78
2019-03-20T07:25:02.091Z,102995.37
2019-03-20T07:27:21.901Z,103002.64
2019-03-20T07:29:41.599Z,102999.20
2019-03-20T07:32:01.426Z,102994.34
2019-03-20T07:34:21.169Z,103002.95
2019-03-20T07:36:40.997Z,103002.20
2019-03-20T07:39:00.865Z,102996.96
2019-03-20T07:41:20.610Z,102994.78
2019-03-20T07:43:40.492Z,102995.31
2019-03-20T07:46:00.368Z,102997.80
2019-03-20T07:48:22.482Z,102999.95
2019-03-20T07:50:42.024Z,102997.55
2019-03-20T07:53:01.875Z,102994.48
2019-03-20T07:55:21.676Z,102988.08
2019-03-20T07:57:41.606Z,102993.15
2019-03-20T08:00:01.543Z,102996.19
2019-03-20T08:02:21.480Z,102992.16
2019-03-20T08:04:41.328Z,102993.20
2019-03-20T08:07:01.260Z,102996.09
2019-03-20T08:09:21.204Z,102998.77
2019-03-20T08:11:41.509Z,102996.47
2019-03-20T08:14:01.131Z,102990.64
2019-03-20T08:16:20.954Z,102988.42
2019-03-20T08:18:40.609Z,102994.97
2019-03-20T08:21:00.304Z,102999.23
2019-03-20T08:23:20.044Z,102996.59
2019-03-20T08:25:39.745Z,102999.56
2019-03-20T08:27:59.579Z,103003.17
2019-03-20T08:30:19.280Z,102994.28
2019-03-20T08:32:39.023Z,103000.03
2019-03-20T08:34:58.737Z,103004.77
2019-03-20T08:37:18.475Z,103007.73
2019-03-20T08:39:38.305Z,103001.42
2019-03-20T08:41:58.132Z,103004.86
2019-03-20T08:44:37.808Z,102999.41
2019-03-20T08:46:58.173Z,102995.13
2019-03-20T08:49:17.901Z,103001.86
2019-03-20T08:51:37.825Z,103004.55
2019-03-20T08:53:57.580Z,103003.64
2019-03-20T08:56:17.549Z,103013.44
2019-03-20T08:58:37.765Z,103011.70
2019-03-20T09:00:57.711Z,103001.62
2019-03-20T09:03:17.613Z,103003.92
2019-03-20T09:05:37.559Z,103011.66
2019-03-20T09:07:57.435Z,103005.07
2019-03-20T09:10:20.482Z,103007.34
2019-03-20T09:12:40.795Z,103003.30
2019-03-20T09:15:00.716Z,103002.37
2019-03-20T09:17:20.816Z,103003.09
2019-03-20T09:19:41.203Z,103005.36
2019-03-20T09:22:00.980Z,102998.09
2019-03-20T09:24:20.835Z,102995.50
2019-03-20T09:26:40.678Z,103011.81
2019-03-20T09:29:00.427Z,103004.98
2019-03-20T09:31:20.222Z,103008.50
2019-03-20T09:33:39.916Z,103007.44
2019-03-20T09:35:59.651Z,103016.54
2019-03-20T09:38:19.486Z,103018.64
2019-03-20T09:40:39.335Z,103026.34
2019-03-20T09:42:59.186Z,103026.43
2019-03-20T09:45:20.317Z,103003.00
2019-03-20T09:47:40.184Z,103006.63
2019-03-20T09:49:59.971Z,103014.62
2019-03-20T09:52:19.748Z,103004.12
2019-03-20T09:54:39.572Z,103004.30
2019-03-20T09:56:59.259Z,102998.20
2019-03-20T09:59:19.166Z,102999.11
2019-03-20T10:01:39.175Z,103007.00
2019-03-20T10:03:59.110Z,103002.36
2019-03-20T10:06:19.077Z,103004.88
2019-03-20T10:08:39.074Z,102994.88
2019-03-20T10:10:58.889Z,102996.72
2019-03-20T10:13:18.775Z,102993.80
2019-03-20T10:15:38.588Z,102989.22
2019-03-20T10:17:58.216Z,103000.49
2019-03-20T10:20:19.536Z,102995.20
2019-03-20T10:22:39.507Z,102991.00
2019-03-20T10:24:59.295Z,102989.73
2019-03-20T10:27:18.972Z,102996.89
2019-03-20T10:29:39.298Z,102981.27
2019-03-20T10:31:59.037Z,102979.41
2019-03-20T10:34:18.854Z,102984.66
2019-03-20T10:36:39.166Z,102985.25
2019-03-20T10:39:06.411Z,102943.74
2019-03-20T10:41:20.513Z,102976.42
2019-03-20T10:43:40.348Z,102975.78
2019-03-20T10:46:00.073Z,102978.27
2019-03-20T10:48:19.745Z,102969.19
2019-03-20T10:50:39.582Z,102975.15
2019-03-20T10:52:59.399Z,102971.53
2019-03-20T10:55:19.273Z,102982.27
2019-03-20T10:57:39.596Z,102976.20
2019-03-20T10:59:59.394Z,102979.33
2019-03-20T11:02:19.477Z,102984.92
2019-03-20T11:04:39.316Z,102980.14
2019-03-20T11:06:59.427Z,102974.80
2019-03-20T11:09:19.840Z,102976.85
2019-03-20T11:11:40.251Z,102976.91
2019-03-20T11:14:00.153Z,102982.19
2019-03-20T11:16:20.072Z,102972.61
2019-03-20T11:18:39.761Z,102972.69
2019-03-20T11:20:59.582Z,102966.59
2019-03-20T11:23:19.226Z,102961.98
2019-03-20T11:25:39.006Z,102965.11
2019-03-20T11:27:58.791Z,102964.05
2019-03-20T11:30:32.302Z,102957.25
2019-03-20T11:32:52.202Z,102959.05
2019-03-20T11:35:12.047Z,102951.89
2019-03-20T11:37:31.922Z,102958.58
2019-03-20T11:39:52.788Z,102961.23
2019-03-20T11:42:12.782Z,102959.75
2019-03-20T11:44:32.628Z,102955.58
2019-03-20T11:46:52.457Z,102965.22
2019-03-20T11:49:12.431Z,102953.14
2019-03-20T11:51:32.275Z,102959.03
2019-03-20T11:53:52.214Z,102954.48
2019-03-20T11:56:12.323Z,102959.08
2019-03-20T11:58:32.304Z,102953.09
2019-03-20T12:00:52.936Z,102958.54
2019-03-20T12:03:12.952Z,102948.87
2019-03-20T12:05:32.709Z,102946.08
2019-03-20T12:07:52.564Z,102948.30
2019-03-20T12:10:21.165Z,102944.92
2019-03-20T12:12:40.705Z,102948.87
2019-03-20T12:15:00.401Z,102940.50
2019-03-20T12:17:20.426Z,102940.33
2019-03-20T12:19:44.809Z,102937.84
2019-03-20T12:22:02.437Z,102938.36
2019-03-20T12:24:22.328Z,102934.41
2019-03-20T12:26:42.226Z,102942.48
2019-03-20T12:29:02.164Z,102940.66
2019-03-20T12:31:22.562Z,102933.10
2019-03-20T12:33:42.504Z,102933.98
2019-03-20T12:36:02.904Z,102928.31
2019-03-20T12:38:23.044Z,102934.11
2019-03-20T12:40:42.970Z,102936.24
2019-03-20T12:43:04.125Z,102930.45
2019-03-20T12:45:28.234Z,102925.84
2019-03-20T12:47:47.953Z,102937.00
2019-03-20T12:50:11.246Z,102932.39
2019-03-20T12:52:30.906Z,102929.16
2019-03-20T12:54:50.701Z,102925.41
2019-03-20T12:57:10.520Z,102923.73
2019-03-20T12:59:30.358Z,102925.25
2019-03-20T13:01:50.326Z,102922.78
2019-03-20T13:04:10.199Z,102921.92
2019-03-20T13:06:30.180Z,102920.80
2019-03-20T13:08:50.184Z,102909.80
2019-03-20T13:11:10.004Z,102904.35
2019-03-20T13:13:29.778Z,102896.55
2019-03-20T13:15:49.553Z,102886.17
2019-03-20T13:18:09.268Z,102890.91
2019-03-20T13:20:29.146Z,102893.77
2019-03-20T13:23:00.185Z,102894.22
2019-03-20T13:25:19.928Z,102894.83
2019-03-20T13:27:39.849Z,102897.91
2019-03-20T13:29:59.545Z,102896.55
2019-03-20T13:32:19.507Z,102886.43
2019-03-20T13:34:39.424Z,102891.05
2019-03-20T13:36:59.459Z,102886.20
2019-03-20T13:39:19.453Z,102871.20
2019-03-20T13:41:39.335Z,102877.45
2019-03-20T13:43:59.193Z,102873.50
2019-03-20T13:46:19.069Z,102879.72
2019-03-20T13:48:38.845Z,102875.08
2019-03-20T13:50:58.566Z,102874.37
2019-03-20T13:53:18.315Z,102881.00
2019-03-20T13:55:38.048Z,102881.03
2019-03-20T13:57:57.891Z,102878.13
2019-03-20T14:00:25.336Z,102878.16
2019-03-20T14:02:45.632Z,102874.05
2019-03-20T14:05:05.581Z,102873.67
2019-03-20T14:07:25.532Z,102874.62
2019-03-20T14:09:45.432Z,102876.20
2019-03-20T14:12:05.267Z,102876.44
2019-03-20T14:14:25.558Z,102870.36
2019-03-20T14:16:45.334Z,102869.70
2019-03-20T14:19:05.120Z,102869.58
2019-03-20T14:21:24.957Z,102869.88
2019-03-20T14:23:44.763Z,102875.25
2019-03-20T14:26:04.461Z,102870.75
2019-03-20T14:28:24.251Z,102885.86
2019-03-20T14:30:44.111Z,102896.31
2019-03-20T14:33:03.937Z,102893.48
2019-03-20T14:35:23.929Z,102888.95
2019-03-20T14:37:44.051Z,102880.89
2019-03-20T14:40:35.407Z,102882.23
2019-03-20T14:42:50.125Z,102880.36
2019-03-20T14:45:13.420Z,102865.43
2019-03-20T14:47:41.890Z,102862.44
2019-03-20T14:49:55.342Z,102871.98
2019-03-20T14:52:15.221Z,102864.19
2019-03-20T14:54:35.089Z,102872.84
2019-03-20T14:56:55.127Z,102866.30
2019-03-20T14:59:15.053Z,102862.05
2019-03-20T15:01:34.966Z,102860.37
2019-03-20T15:03:54.812Z,102871.11
2019-03-20T15:06:14.417Z,102868.58
2019-03-20T15:08:34.121Z,102856.94
2019-03-20T15:10:53.846Z,102852.03
2019-03-20T15:13:13.621Z,102850.36
2019-03-20T15:15:44.734Z,102854.23
2019-03-20T15:18:06.146Z,102851.08
2019-03-20T15:20:25.855Z,102861.22
2019-03-20T15:22:45.729Z,102868.19
2019-03-20T15:25:09.516Z,102861.80
2019-03-20T15:27:29.380Z,102851.08
2019-03-20T15:29:49.286Z,102845.52
2019-03-20T15:32:09.392Z,102843.17
2019-03-20T15:34:29.152Z,102835.55
2019-03-20T15:36:49.001Z,102840.22
2019-03-20T15:39:08.875Z,102835.64
2019-03-20T15:41:28.770Z,102835.63
2019-03-20T15:43:48.749Z,102829.60
2019-03-20T15:46:08.718Z,102829.19
2019-03-20T15:48:28.569Z,102820.30
2019-03-20T15:50:48.510Z,102817.38
2019-03-20T15:53:08.476Z,102808.23
2019-03-20T15:55:32.136Z,102805.17
2019-03-20T15:57:52.482Z,102806.59
2019-03-20T16:00:21.029Z,102809.02
2019-03-20T16:02:41.053Z,102817.73
2019-03-20T16:05:00.846Z,102820.93
2019-03-20T16:07:20.612Z,102824.67
2019-03-20T16:09:40.484Z,102824.44
2019-03-20T16:12:00.306Z,102824.31
2019-03-20T16:14:20.023Z,102826.11
2019-03-20T16:16:40.062Z,102825.23
2019-03-20T16:18:59.955Z,102829.30
2019-03-20T16:21:19.742Z,102822.46
2019-03-20T16:23:39.651Z,102831.88
2019-03-20T16:25:59.590Z,102834.28
2019-03-20T16:28:19.588Z,102837.72
2019-03-20T16:30:39.452Z,102841.31
2019-03-20T16:32:59.359Z,102836.80
2019-03-20T16:35:19.196Z,102842.70
2019-03-20T16:37:38.972Z,102849.44
2019-03-20T16:39:58.754Z,102840.23
2019-03-20T16:42:18.792Z,102850.83
2019-03-20T16:44:38.474Z,102842.61
2019-03-20T16:46:58.179Z,102843.42
2019-03-20T16:49:18.021Z,102841.58
2019-03-20T16:51:37.661Z,102850.00
2019-03-20T16:53:57.481Z,102852.42
2019-03-20T16:56:17.527Z,102854.88
2019-03-20T16:58:37.260Z,102850.98
2019-03-20T17:00:57.110Z,102858.14
2019-03-20T17:03:16.804Z,102863.31
2019-03-20T17:05:36.612Z,102861.73
2019-03-20T17:07:56.466Z,102860.23
2019-03-20T17:10:23.721Z,102856.05
2019-03-20T17:12:43.816Z,102863.02
2019-03-20T17:15:11.827Z,102864.91
2019-03-20T17:17:32.254Z,102870.18
2019-03-20T17:19:52.241Z,102864.42
2019-03-20T17:22:12.139Z,102866.19
2019-03-20T17:24:32.016Z,102867.63
2019-03-20T17:26:51.722Z,102866.08
2019-03-20T17:29:13.632Z,102868.08
2019-03-20T17:31:33.436Z,102857.17
2019-03-20T17:33:53.189Z,102873.84
2019-03-20T17:36:12.926Z,102870.66
2019-03-20T17:38:32.745Z,102874.11
2019-03-20T17:40:52.435Z,102873.11
2019-03-20T17:43:12.216Z,102874.59
2019-03-20T17:45:31.947Z,102873.80
2019-03-20T17:47:51.637Z,102877.04
2019-03-20T17:50:32.102Z,102880.39
2019-03-20T17:52:51.772Z,102881.59
2019-03-20T17:55:11.617Z,102886.79
2019-03-20T17:57:31.821Z,102891.67
2019-03-20T17:59:51.627Z,102894.86
2019-03-20T18:02:11.338Z,102892.17
2019-03-20T18:04:31.060Z,102895.41
2019-03-20T18:06:50.797Z,102891.50
2019-03-20T18:09:10.452Z,102889.69
2019-03-20T18:11:30.209Z,102895.45
2019-03-20T18:13:49.901Z,102899.91
2019-03-20T18:16:09.723Z,102899.91
2019-03-20T18:18:29.638Z,102906.73
2019-03-20T18:20:49.489Z,102908.98
2019-03-20T18:23:09.455Z,102906.44
2019-03-20T18:25:29.377Z,102909.44
2019-03-20T18:27:49.268Z,102916.00
2019-03-20T18:30:31.223Z,102917.50
2019-03-20T18:32:50.919Z,102914.37
2019-03-20T18:35:10.828Z,102917.94
2019-03-20T18:37:30.757Z,102914.27
2019-03-20T18:39:50.688Z,102921.35
2019-03-20T18:42:10.703Z,102929.25
2019-03-20T18:44:31.329Z,102930.80
2019-03-20T18:46:51.244Z,102928.66
2019-03-20T18:49:11.258Z,102919.48
2019-03-20T18:51:31.054Z,102916.95
2019-03-20T18:53:50.888Z,102917.39
2019-03-20T18:56:12.329Z,102924.05
2019-03-20T18:58:32.541Z,102926.61
2019-03-20T19:00:52.388Z,102928.94
2019-03-20T19:03:22.472Z,102926.97
2019-03-20T19:06:10.616Z,102930.98
2019-03-20T19:08:30.469Z,102929.63
2019-03-20T19:10:50.417Z,102929.66
2019-03-20T19:13:10.279Z,102930.25
2019-03-20T19:15:30.226Z,102924.58
2019-03-20T19:17:50.108Z,102926.52
2019-03-20T19:20:13.238Z,102930.58
2019-03-20T19:22:32.961Z,102933.88
2019-03-20T19:24:53.033Z,102930.93
2019-03-20T19:27:12.891Z,102932.95
2019-03-20T19:29:33.009Z,102934.04
2019-03-20T19:31:52.777Z,102937.23
2019-03-20T19:34:12.539Z,102938.14
2019-03-20T19:36:32.255Z,102934.72
2019-03-20T19:38:52.136Z,102929.83
2019-03-20T19:41:11.965Z,102925.64
2019-03-20T19:43:31.740Z,102930.73
2019-03-20T19:45:51.432Z,102933.17
2019-03-20T19:48:13.692Z,102929.39
2019-03-20T19:50:32.971Z,102927.38
2019-03-20T19:52:52.728Z,102930.44
2019-03-20T19:55:33.477Z,102933.83
2019-03-20T19:57:58.396Z,102931.73
2019-03-20T20:00:24.082Z,102935.58
2019-03-20T20:02:45.150Z,102934.49
2019-03-20T20:05:15.793Z,102930.89
2019-03-20T20:07:29.424Z,102926.13
2019-03-20T20:09:49.062Z,102920.34
2019-03-20T20:12:08.708Z,102915.74
2019-03-20T20:14:28.540Z,102917.02
2019-03-20T20:16:48.515Z,102911.67
2019-03-20T20:19:08.359Z,102911.93
2019-03-20T20:21:28.168Z,102921.38
2019-03-20T20:23:48.226Z,102910.50
2019-03-20T20:26:07.956Z,102909.56
2019-03-20T20:28:27.770Z,102917.35
2019-03-20T20:30:49.697Z,102911.02
2019-03-20T20:33:09.459Z,102919.09
2019-03-20T20:35:29.248Z,102923.73
2019-03-20T20:37:49.399Z,102925.36
2019-03-20T20:40:16.908Z,102925.28
2019-03-20T20:42:43.055Z,102926.20
2019-03-20T20:44:58.573Z,102927.14
2019-03-20T20:47:18.369Z,102924.14
2019-03-20T20:49:38.164Z,102925.41
2019-03-20T20:51:57.947Z,102935.86
2019-03-20T20:54:17.816Z,102938.92
2019-03-20T20:56:37.674Z,102943.45
2019-03-20T20:58:57.408Z,102944.17
2019-03-20T21:01:17.061Z,102939.97
2019-03-20T21:03:36.908Z,102939.30
2019-03-20T21:05:56.708Z,102942.03
2019-03-20T21:08:16.612Z,102943.84
2019-03-20T21:10:36.438Z,102943.68
2019-03-20T21:12:57.511Z,102946.27
2019-03-20T21:15:34.924Z,102951.99
2019-03-20T21:18:18.591Z,102959.08
2019-03-20T21:20:39.075Z,102969.29
2019-03-20T21:24:15.521Z,102971.44
2019-03-20T21:27:03.946Z,102977.70
2019-03-20T21:30:08.591Z,102980.29
2019-03-20T21:32:39.775Z,102976.46
2019-03-20T21:35:14.338Z,102980.83
2019-03-20T21:38:05.455Z,102984.20
2019-03-20T21:40:25.418Z,102984.90
2019-03-20T21:43:37.397Z,102985.52
2019-03-20T21:46:27.583Z,102982.77
2019-03-20T21:48:47.372Z,102989.06
2019-03-20T21:51:14.605Z,102997.17
2019-03-20T21:54:12.205Z,103002.48
2019-03-20T21:57:02.415Z,103004.05
2019-03-20T21:59:52.502Z,103009.98
2019-03-20T22:02:34.353Z,103021.80
2019-03-20T22:04:54.603Z,103020.64
2019-03-20T22:07:14.655Z,103022.83
2019-03-20T22:09:58.537Z,103020.69
2019-03-20T22:12:30.348Z,103025.46
2019-03-20T22:14:56.220Z,103025.42
2019-03-20T22:18:05.259Z,103022.81
2019-03-20T22:20:42.393Z,103025.99
2019-03-20T22:23:25.870Z,103023.31
2019-03-20T22:26:09.486Z,103024.89
2019-03-20T22:29:19.093Z,103034.41
2019-03-20T22:31:52.519Z,103037.23
2019-03-20T22:34:44.764Z,103029.41
2019-03-20T22:37:04.716Z,103034.77
2019-03-20T22:39:56.658Z,103034.77
2019-03-20T22:42:51.600Z,103032.30
2019-03-20T22:45:22.939Z,103031.30
2019-03-20T22:48:25.397Z,103032.25
2019-03-20T22:51:11.259Z,103034.39
2019-03-20T22:54:03.315Z,103029.87
2019-03-20T22:56:34.613Z,103030.94
2019-03-20T22:58:54.962Z,103030.39
2019-03-20T23:01:29.560Z,103030.69
2019-03-20T23:04:10.433Z,103024.38
2019-03-20T23:06:30.319Z,103027.11
2019-03-20T23:08:50.187Z,103022.38
2019-03-20T23:11:13.299Z,103020.27
2019-03-20T23:13:41.024Z,103012.78
2019-03-20T23:15:55.112Z,103011.25
2019-03-20T23:18:14.887Z,103012.55
2019-03-20T23:20:34.815Z,103019.81
2019-03-20T23:22:54.642Z,103017.65
2019-03-20T23:25:14.638Z,103011.59
2019-03-20T23:27:34.689Z,103010.05
2019-03-20T23:29:54.692Z,103008.70
2019-03-20T23:32:14.566Z,103012.77
2019-03-20T23:34:34.465Z,103013.47
2019-03-20T23:36:54.639Z,103010.23
2019-03-20T23:39:14.656Z,103011.39
2019-03-20T23:41:34.377Z,103016.36
2019-03-20T23:43:54.209Z,103016.55
2019-03-20T23:46:13.991Z,103012.64
2019-03-20T23:48:39.346Z,103014.54
2019-03-20T23:51:05.316Z,103027.19
2019-03-20T23:53:25.193Z,103020.84
2019-03-20T23:55:44.907Z,103016.14
2019-03-20T23:58:04.717Z,103020.63
